Time;durP1;ratioP1;P1;durP2;ratioP2;P2;SDS_P1;SDS_P2;PMS_P1;PMS_P2;Temp;Humidity;BMP_temperature;BMP_pressure;BME280_temperature;BME280_humidity;BME280_pressure;Samples;Min_cycle;Max_cycle;Signal;HPM_P1;HPM_P2
2021/01/04 07:58:48;;;;;;;6.25;3.90;;;9.00;99.90;;;;;;4371817;24;20068;-76
2021/01/04 08:01:32;;;;;;;4.85;2.20;;;9.00;99.90;;;;;;4725730;30;20043;-77
2021/01/04 08:04:17;;;;;;;6.18;4.82;;;9.00;99.90;;;;;;4731816;30;20033;-77
2021/01/04 08:06:59;;;;;;;2.97;2.17;;;9.00;99.90;;;;;;4731271;30;20036;-82
2021/01/04 08:09:50;;;;;;;3.60;2.33;;;9.00;99.90;;;;;;4730721;30;20036;-78
2021/01/04 08:12:40;;;;;;;46.10;5.70;;;9.00;99.90;;;;;;4730686;30;20033;-78
2021/01/04 08:15:40;;;;;;;4.43;1.40;;;9.00;99.90;;;;;;4732359;30;20036;-77
2021/01/04 08:18:12;;;;;;;13.25;2.15;;;9.00;99.90;;;;;;4731155;30;20276;-78
2021/01/04 08:20:59;;;;;;;2.33;1.13;;;9.00;99.90;;;;;;4730616;30;20043;-78
2021/01/04 08:23:47;;;;;;;3.58;1.35;;;9.10;99.90;;;;;;4732040;30;20033;-76
2021/01/04 08:26:34;;;;;;;2.03;1.10;;;9.00;99.90;;;;;;4729804;30;20036;-76
2021/01/04 08:29:10;;;;;;;20.35;2.60;;;9.00;99.90;;;;;;4729051;30;20044;-80
2021/01/04 08:31:58;;;;;;;4.03;1.90;;;9.10;99.90;;;;;;4729952;30;20122;-80
2021/01/04 08:34:24;;;;;;;17.45;5.32;;;9.20;99.90;;;;;;4730121;30;20045;-80
2021/01/04 08:36:58;;;;;;;7.15;2.40;;;9.20;99.90;;;;;;4731359;30;20056;-77
2021/01/04 08:39:25;;;;;;;5.65;3.33;;;9.20;99.90;;;;;;4729721;30;20037;-80
2021/01/04 08:42:20;;;;;;;15.80;3.83;;;9.20;99.90;;;;;;4728767;30;20035;-77
2021/01/04 08:44:55;;;;;;;5.90;3.00;;;9.20;99.90;;;;;;4726414;30;20593;-76
2021/01/04 08:47:35;;;;;;;5.78;3.17;;;9.20;99.90;;;;;;4729542;30;20032;-76
2021/01/04 08:50:06;;;;;;;6.45;3.85;;;9.10;99.90;;;;;;4729864;30;20039;-76
2021/01/04 08:52:50;;;;;;;7.68;2.92;;;9.10;99.90;;;;;;4729479;30;20044;-77
2021/01/04 08:55:27;;;;;;;4.82;2.00;;;9.10;99.90;;;;;;4728393;30;20045;-79
2021/01/04 08:57:54;;;;;;;2.72;1.42;;;9.10;99.90;;;;;;4728878;30;20071;-78
2021/01/04 09:00:29;;;;;;;3.72;2.40;;;9.20;99.90;;;;;;4714743;30;20123;-78
2021/01/04 09:02:56;;;;;;;5.07;2.10;;;9.20;99.90;;;;;;4728567;30;20033;-78
2021/01/04 09:05:33;;;;;;;3.00;1.90;;;9.20;99.90;;;;;;4728405;30;20047;-77
2021/01/04 09:08:02;;;;;;;2.08;1.00;;;9.30;99.90;;;;;;4730252;30;20037;-77
2021/01/04 09:10:40;;;;;;;3.88;1.55;;;9.40;99.90;;;;;;4730413;30;20037;-77
2021/01/04 09:13:14;;;;;;;3.85;1.80;;;9.50;99.90;;;;;;4730414;30;20407;-77
2021/01/04 09:15:41;;;;;;;5.68;2.45;;;9.50;99.90;;;;;;4730511;30;20532;-77
2021/01/04 09:18:34;;;;;;;3.85;1.60;;;9.50;99.90;;;;;;4730474;30;20028;-78
2021/01/04 09:21:07;;;;;;;4.53;1.50;;;9.60;99.90;;;;;;4729933;30;20051;-78
2021/01/04 09:23:40;;;;;;;1.98;1.30;;;9.70;99.90;;;;;;4730150;30;20032;-78
2021/01/04 09:26:25;;;;;;;4.22;2.10;;;9.70;99.90;;;;;;4727365;30;20044;-78
2021/01/04 09:29:12;;;;;;;3.80;2.30;;;9.80;99.90;;;;;;4729036;30;20151;-77
2021/01/04 09:31:47;;;;;;;5.72;2.00;;;9.80;99.90;;;;;;4726177;30;20485;-78
2021/01/04 09:34:17;;;;;;;4.53;2.15;;;9.90;99.90;;;;;;4730346;30;20024;-79
2021/01/04 09:36:43;;;;;;;3.17;1.70;;;9.90;99.90;;;;;;4729661;30;20458;-78
2021/01/04 09:39:13;;;;;;;4.22;2.50;;;9.90;99.90;;;;;;4729470;30;20120;-78
2021/01/04 09:41:40;;;;;;;6.45;3.13;;;10.00;99.90;;;;;;4728932;30;20392;-77
2021/01/04 09:44:10;;;;;;;3.75;1.67;;;10.00;99.90;;;;;;4729967;30;20040;-77
2021/01/04 09:46:43;;;;;;;3.97;1.77;;;10.00;99.90;;;;;;4727583;30;20445;-77
2021/01/04 09:49:13;;;;;;;;;;;10.00;99.90;;;;;;4728002;30;20048;-77
2021/01/04 09:51:47;;;;;;;2.60;1.63;;;10.00;99.90;;;;;;4730254;30;20426;-78
2021/01/04 09:54:21;;;;;;;3.75;1.80;;;10.00;99.90;;;;;;4723206;30;20049;-78
2021/01/04 09:56:49;;;;;;;5.78;1.58;;;10.10;99.90;;;;;;4711150;30;20557;-78
2021/01/04 09:59:23;;;;;;;4.07;1.60;;;10.20;99.90;;;;;;4696524;30;20060;-79
2021/01/04 10:01:59;;;;;;;1.50;1.17;;;10.30;99.90;;;;;;4711201;30;20383;-78
2021/01/04 10:04:31;;;;;;;2.47;1.25;;;10.30;99.90;;;;;;4737291;30;20036;-78
2021/01/04 10:07:03;;;;;;;2.28;1.30;;;10.30;99.90;;;;;;4734313;30;20402;-78
2021/01/04 10:09:33;;;;;;;6.00;1.50;;;10.30;99.90;;;;;;4724836;30;20033;-78
2021/01/04 10:12:02;;;;;;;5.45;3.42;;;10.40;99.90;;;;;;4726451;30;20401;-78
2021/01/04 10:14:29;;;;;;;2.20;1.33;;;10.30;99.90;;;;;;4728864;30;20575;-77
2021/01/04 10:16:58;;;;;;;2.78;2.10;;;10.30;99.90;;;;;;4728676;30;20032;-78
2021/01/04 10:19:50;;;;;;;3.30;1.98;;;10.20;99.90;;;;;;4729793;30;20040;-77
2021/01/04 10:22:24;;;;;;;2.78;1.60;;;10.20;99.90;;;;;;4728514;30;20050;-78
2021/01/04 10:25:22;;;;;;;4.47;1.70;;;10.30;99.90;;;;;;4729367;30;20513;-78
2021/01/04 10:27:53;;;;;;;4.25;1.45;;;10.30;99.90;;;;;;4705051;30;20555;-78
2021/01/04 10:30:24;;;;;;;4.20;1.38;;;10.30;99.90;;;;;;4729191;30;20028;-78
2021/01/04 10:33:02;;;;;;;4.45;3.60;;;10.30;99.90;;;;;;4728360;30;20035;-78
2021/01/04 10:35:28;;;;;;;3.83;2.33;;;10.30;99.90;;;;;;4727103;30;20074;-78
2021/01/04 10:38:09;;;;;;;2.22;1.35;;;10.30;99.90;;;;;;4728055;30;20045;-78
2021/01/04 10:40:50;;;;;;;2.63;1.80;;;10.30;99.90;;;;;;4727235;30;20090;-78
2021/01/04 10:43:19;;;;;;;3.33;1.20;;;10.30;99.90;;;;;;4728221;30;20084;-78
2021/01/04 10:45:45;;;;;;;6.05;1.25;;;10.40;99.90;;;;;;4729087;30;20083;-77
2021/01/04 10:48:24;;;;;;;3.45;1.50;;;10.30;99.90;;;;;;4729053;30;20029;-78
2021/01/04 10:50:53;;;;;;;1.42;1.33;;;10.40;99.90;;;;;;4728897;30;20394;-78
2021/01/04 10:53:42;;;;;;;6.15;1.55;;;10.40;99.90;;;;;;4726177;30;20040;-78
2021/01/04 10:56:17;;;;;;;3.50;1.70;;;10.40;99.90;;;;;;4727584;30;20107;-78
2021/01/04 10:58:46;;;;;;;2.67;2.15;;;10.40;99.90;;;;;;4728294;30;20084;-77
2021/01/04 11:01:21;;;;;;;8.63;2.47;;;10.50;99.90;;;;;;4728686;30;20066;-80
2021/01/04 11:03:56;;;;;;;4.93;2.63;;;10.50;99.90;;;;;;4732260;30;20058;-78
2021/01/04 11:06:27;;;;;;;5.82;2.88;;;10.50;99.90;;;;;;4728392;30;20041;-82
2021/01/04 11:08:53;;;;;;;6.28;3.03;;;10.60;99.90;;;;;;4730919;30;20066;-78
2021/01/04 11:11:40;;;;;;;7.38;3.22;;;10.60;99.90;;;;;;4731270;30;20043;-78
2021/01/04 11:14:13;;;;;;;6.53;2.97;;;10.60;99.90;;;;;;4732277;30;20040;-78
2021/01/04 11:16:52;;;;;;;5.85;2.35;;;10.60;99.90;;;;;;4731226;30;20040;-78
2021/01/04 11:19:29;;;;;;;8.77;3.13;;;10.60;99.90;;;;;;4735590;30;20056;-77
2021/01/04 11:21:55;;;;;;;5.32;2.53;;;10.60;99.90;;;;;;4732345;30;20108;-78
2021/01/04 11:24:21;;;;;;;10.15;5.05;;;10.60;99.90;;;;;;4733695;30;20087;-77
2021/01/04 11:26:47;;;;;;;6.50;2.95;;;10.60;99.90;;;;;;4732433;30;20111;-77
2021/01/04 11:29:15;;;;;;;5.68;3.13;;;10.60;99.90;;;;;;4731266;30;20513;-77
2021/01/04 11:31:41;;;;;;;3.20;2.10;;;10.50;99.90;;;;;;4730815;30;20036;-77
2021/01/04 11:34:07;;;;;;;3.50;2.00;;;10.50;99.90;;;;;;4731581;30;20124;-77
2021/01/04 11:36:34;;;;;;;3.30;1.52;;;10.50;99.90;;;;;;4732399;30;20041;-77
2021/01/04 11:39:00;;;;;;;6.85;3.03;;;10.40;99.90;;;;;;4732134;30;20575;-77
2021/01/04 11:41:26;;;;;;;2.85;1.60;;;10.40;99.90;;;;;;4731648;30;20036;-76
2021/01/04 11:43:52;;;;;;;3.47;2.00;;;10.40;99.90;;;;;;4732200;30;20490;-77
2021/01/04 11:46:19;;;;;;;10.02;6.50;;;10.40;99.90;;;;;;4731866;30;20499;-76
2021/01/04 11:48:46;;;;;;;5.90;2.08;;;10.40;99.90;;;;;;4732418;30;20549;-77
2021/01/04 11:51:22;;;;;;;5.32;2.60;;;10.40;99.90;;;;;;4727731;30;20478;-77
2021/01/04 11:53:49;;;;;;;5.90;2.58;;;10.40;99.90;;;;;;4734791;30;20043;-77
2021/01/04 11:56:17;;;;;;;4.88;2.42;;;10.40;99.90;;;;;;4728068;30;20041;-78
2021/01/04 11:58:46;;;;;;;4.28;2.38;;;10.40;99.90;;;;;;4731162;30;20049;-76
2021/01/04 12:01:13;;;;;;;4.90;2.58;;;10.30;99.90;;;;;;4732043;30;20410;-77
2021/01/04 12:03:39;;;;;;;7.40;3.22;;;10.30;99.90;;;;;;4731395;30;20444;-77
2021/01/04 12:06:06;;;;;;;5.47;2.60;;;10.30;99.90;;;;;;4731453;30;20040;-76
2021/01/04 12:08:33;;;;;;;5.45;2.70;;;10.30;99.90;;;;;;4731958;30;20494;-76
2021/01/04 12:11:00;;;;;;;5.53;2.92;;;10.40;99.90;;;;;;4731108;30;20090;-76
2021/01/04 12:13:26;;;;;;;4.50;3.17;;;10.40;99.90;;;;;;4732008;30;20037;-76
2021/01/04 12:15:53;;;;;;;6.47;2.90;;;10.40;99.90;;;;;;4729075;30;20033;-76
2021/01/04 12:18:19;;;;;;;11.73;5.47;;;10.40;99.90;;;;;;4730480;30;20494;-76
2021/01/04 12:20:46;;;;;;;4.88;3.25;;;10.50;99.90;;;;;;4731310;30;20081;-76
2021/01/04 12:23:14;;;;;;;8.18;3.90;;;10.40;99.90;;;;;;4731464;30;20028;-76
2021/01/04 12:25:40;;;;;;;6.50;4.10;;;10.40;99.90;;;;;;4730089;30;20057;-78
2021/01/04 12:28:06;;;;;;;7.32;4.57;;;10.50;99.90;;;;;;4729681;30;20036;-78
2021/01/04 12:30:33;;;;;;;4.85;3.72;;;10.50;99.90;;;;;;4729686;30;20032;-78
2021/01/04 12:33:00;;;;;;;7.72;4.28;;;10.50;99.90;;;;;;4731136;30;20116;-79
2021/01/04 12:35:27;;;;;;;12.13;4.60;;;10.50;99.90;;;;;;4730915;30;20071;-77
2021/01/04 12:37:54;;;;;;;8.20;4.47;;;10.50;99.90;;;;;;4732903;30;20494;-77
2021/01/04 12:40:29;;;;;;;6.82;3.97;;;10.60;99.90;;;;;;4731971;30;20072;-79
2021/01/04 12:42:57;;;;;;;5.75;3.85;;;10.60;99.90;;;;;;4730666;30;20025;-79
2021/01/04 12:45:24;;;;;;;8.10;3.63;;;10.60;99.90;;;;;;4730172;30;20036;-78
2021/01/04 12:47:51;;;;;;;12.85;7.68;;;10.70;99.90;;;;;;4731136;30;20115;-78
2021/01/04 12:50:18;;;;;;;9.93;5.68;;;10.80;99.90;;;;;;4728376;30;20040;-80
2021/01/04 12:52:44;;;;;;;6.80;3.97;;;10.90;99.90;;;;;;4731161;30;20447;-79
2021/01/04 12:55:11;;;;;;;5.82;3.53;;;10.90;99.90;;;;;;4730929;30;20037;-77
2021/01/04 12:57:37;;;;;;;6.72;4.30;;;11.00;99.90;;;;;;4726691;30;20033;-77
2021/01/04 13:00:07;;;;;;;6.00;2.83;;;11.10;99.90;;;;;;4730829;30;20043;-77
2021/01/04 13:02:34;;;;;;;5.40;2.67;;;11.00;99.90;;;;;;4727937;30;20121;-77
2021/01/04 13:05:00;;;;;;;6.25;3.38;;;11.10;99.90;;;;;;4731184;30;20036;-77
2021/01/04 13:07:28;;;;;;;5.05;3.60;;;11.10;99.90;;;;;;4731317;30;20050;-78
2021/01/04 13:09:55;;;;;;;7.75;3.13;;;11.20;99.90;;;;;;4730416;30;20032;-78
2021/01/04 13:12:21;;;;;;;5.47;3.03;;;11.20;99.90;;;;;;4729621;30;20160;-78
2021/01/04 13:14:48;;;;;;;14.95;8.90;;;11.20;99.90;;;;;;4729732;30;20043;-78
2021/01/04 13:17:15;;;;;;;5.72;3.30;;;11.40;99.90;;;;;;4731529;30;20124;-77
2021/01/04 13:19:41;;;;;;;4.10;2.63;;;11.50;99.90;;;;;;4730370;30;20044;-77
2021/01/04 13:22:08;;;;;;;3.50;2.40;;;11.50;99.90;;;;;;4730009;30;20033;-78
2021/01/04 13:24:34;;;;;;;4.70;2.90;;;11.50;99.90;;;;;;4730256;30;20033;-78
2021/01/04 13:27:00;;;;;;;5.18;3.10;;;11.50;99.90;;;;;;4730508;30;20036;-78
2021/01/04 13:29:29;;;;;;;5.72;3.72;;;11.50;99.90;;;;;;4729952;30;20033;-78
2021/01/04 13:32:07;;;;;;;5.50;2.88;;;11.50;99.90;;;;;;4729630;30;20037;-78
2021/01/04 13:34:34;;;;;;;3.80;2.83;;;11.40;99.90;;;;;;4729991;30;20049;-78
2021/01/04 13:37:02;;;;;;;7.47;3.97;;;11.30;99.90;;;;;;4726436;30;20025;-78
2021/01/04 13:39:29;;;;;;;6.05;2.92;;;11.50;99.90;;;;;;4728943;30;20041;-78
2021/01/04 13:41:57;;;;;;;5.15;3.42;;;11.40;99.90;;;;;;4729102;30;20398;-79
2021/01/04 13:44:25;;;;;;;7.10;3.20;;;11.50;99.90;;;;;;4728779;30;20509;-79
2021/01/04 13:47:03;;;;;;;4.22;2.22;;;11.40;99.90;;;;;;4723539;30;20050;-79
2021/01/04 13:49:41;;;;;;;6.93;4.82;;;11.40;99.90;;;;;;4731726;30;20044;-78
2021/01/04 13:52:08;;;;;;;4.90;3.22;;;11.40;99.90;;;;;;4727005;30;20044;-78
2021/01/04 13:54:34;;;;;;;4.80;2.65;;;11.40;99.90;;;;;;4730156;30;20044;-78
2021/01/04 13:57:00;;;;;;;6.10;3.15;;;11.40;99.90;;;;;;4730230;30;20393;-78
2021/01/04 13:59:27;;;;;;;5.07;2.38;;;11.40;99.90;;;;;;4730273;30;20060;-78
2021/01/04 14:01:58;;;;;;;8.05;2.80;;;11.40;99.90;;;;;;4730169;30;20162;-78
2021/01/04 14:04:25;;;;;;;6.35;3.28;;;11.50;99.90;;;;;;4729924;30;20040;-78
2021/01/04 14:06:51;;;;;;;3.33;2.47;;;11.60;99.90;;;;;;4730124;30;20025;-78
2021/01/04 14:09:17;;;;;;;7.05;3.17;;;11.70;99.90;;;;;;4727478;30;20766;-78
2021/01/04 14:11:46;;;;;;;5.10;3.40;;;11.80;99.90;;;;;;4730208;30;20025;-78
2021/01/04 14:14:13;;;;;;;6.22;3.38;;;12.00;99.90;;;;;;4729668;30;20109;-78
2021/01/04 14:16:39;;;;;;;6.35;3.10;;;12.30;99.90;;;;;;4729810;30;20439;-78
2021/01/04 14:19:05;;;;;;;13.02;7.32;;;12.60;99.90;;;;;;4732436;30;20036;-78
2021/01/04 14:21:31;;;;;;;5.80;2.88;;;12.80;99.90;;;;;;4729825;30;20041;-78
2021/01/04 14:23:58;;;;;;;7.38;4.00;;;13.00;99.90;;;;;;4729714;30;20036;-79
2021/01/04 14:26:34;;;;;;;7.15;3.60;;;13.40;99.90;;;;;;4729631;30;20032;-78
2021/01/04 14:29:04;;;;;;;4.28;2.17;;;13.60;99.90;;;;;;4731968;30;20120;-79
2021/01/04 14:31:47;;;;;;;7.00;4.40;;;13.60;99.90;;;;;;4729499;30;20502;-78
2021/01/04 14:34:16;;;;;;;4.82;2.88;;;13.70;99.90;;;;;;4726753;30;20505;-79
2021/01/04 14:36:43;;;;;;;5.40;3.53;;;13.70;99.90;;;;;;4728841;30;20309;-78
2021/01/04 14:39:11;;;;;;;5.93;2.35;;;13.60;99.90;;;;;;4733098;30;20097;-79
2021/01/04 14:41:38;;;;;;;5.15;2.28;;;13.90;99.90;;;;;;4732316;30;20036;-79
2021/01/04 14:44:07;;;;;;;7.95;2.33;;;13.90;99.90;;;;;;4731352;30;20441;-79
2021/01/04 14:46:34;;;;;;;5.18;2.75;;;14.30;99.90;;;;;;4732597;30;20033;-79
2021/01/04 14:49:01;;;;;;;4.25;2.15;;;14.20;99.90;;;;;;4734383;30;20028;-79
2021/01/04 14:51:27;;;;;;;4.25;1.85;;;13.40;99.90;;;;;;4731837;30;20487;-79
2021/01/04 14:53:53;;;;;;;4.68;2.08;;;13.40;99.90;;;;;;4733034;30;20033;-79
2021/01/04 14:56:20;;;;;;;4.93;2.80;;;13.20;99.90;;;;;;4733233;30;20075;-79
2021/01/04 14:58:59;;;;;;;8.13;4.15;;;13.10;99.90;;;;;;4732352;30;20056;-79
2021/01/04 15:01:28;;;;;;;4.22;1.80;;;12.80;99.90;;;;;;4729408;30;20072;-78
2021/01/04 15:03:54;;;;;;;4.88;2.80;;;13.00;99.90;;;;;;4730626;30;20898;-78
2021/01/04 15:06:22;;;;;;;7.28;3.80;;;12.90;99.90;;;;;;4731064;30;20036;-78
2021/01/04 15:08:49;;;;;;;4.38;3.17;;;12.60;99.90;;;;;;4732608;30;20067;-79
2021/01/04 15:11:16;;;;;;;5.75;2.90;;;12.50;99.90;;;;;;4728500;30;20037;-78
2021/01/04 15:13:44;;;;;;;10.35;7.28;;;12.50;99.90;;;;;;4732425;30;20036;-78
2021/01/04 15:16:11;;;;;;;7.60;4.07;;;12.70;99.90;;;;;;4732354;30;20047;-79
2021/01/04 15:18:37;;;;;;;12.68;8.15;;;12.50;99.90;;;;;;4732540;30;20056;-79
2021/01/04 15:21:04;;;;;;;10.10;6.22;;;12.60;99.90;;;;;;4741206;30;20075;-78
2021/01/04 15:23:30;;;;;;;5.07;3.35;;;12.70;99.90;;;;;;4722202;30;20128;-78
2021/01/04 15:25:56;;;;;;;6.72;4.25;;;12.80;99.90;;;;;;4716731;30;20045;-79
2021/01/04 15:28:22;;;;;;;8.00;4.97;;;12.70;99.90;;;;;;4720942;30;20048;-78
2021/01/04 15:30:48;;;;;;;4.18;3.15;;;12.50;99.90;;;;;;4732208;30;20490;-78
2021/01/04 15:33:15;;;;;;;6.03;3.50;;;12.50;99.90;;;;;;4729575;30;20102;-78
2021/01/04 15:35:41;;;;;;;9.52;5.00;;;12.40;99.90;;;;;;4732279;30;20136;-79
2021/01/04 15:38:08;;;;;;;6.78;4.50;;;12.20;99.90;;;;;;4731839;30;20029;-78
2021/01/04 15:40:34;;;;;;;6.88;4.28;;;11.90;99.90;;;;;;4732212;30;20044;-78
2021/01/04 15:43:00;;;;;;;8.80;4.43;;;11.90;99.90;;;;;;4732094;30;20082;-79
2021/01/04 15:45:26;;;;;;;7.60;4.35;;;11.80;99.90;;;;;;4733717;30;20187;-79
2021/01/04 15:47:53;;;;;;;7.45;4.88;;;11.70;99.90;;;;;;4737554;30;20193;-78
2021/01/04 15:50:19;;;;;;;8.35;4.57;;;11.70;99.90;;;;;;4717012;30;20148;-78
2021/01/04 15:52:45;;;;;;;6.47;3.70;;;11.70;99.90;;;;;;4732218;30;20028;-78
2021/01/04 15:55:11;;;;;;;13.75;7.45;;;11.60;99.90;;;;;;4717684;30;20061;-78
2021/01/04 15:57:38;;;;;;;18.05;9.35;;;11.40;99.90;;;;;;4714654;30;20405;-78
2021/01/04 16:00:07;;;;;;;10.70;4.60;;;11.30;99.90;;;;;;4716020;30;20052;-78
2021/01/04 16:02:38;;;;;;;5.30;3.03;;;11.30;99.90;;;;;;4727072;30;20052;-78
2021/01/04 16:05:04;;;;;;;9.00;5.40;;;11.10;99.90;;;;;;4745646;30;20028;-78
2021/01/04 16:07:30;;;;;;;8.13;4.90;;;11.10;99.90;;;;;;4751046;30;20059;-78
2021/01/04 16:09:56;;;;;;;8.45;4.85;;;11.00;99.90;;;;;;4751193;30;20044;-78
2021/01/04 16:12:23;;;;;;;7.43;3.40;;;11.00;99.90;;;;;;4745050;30;20036;-78
2021/01/04 16:14:49;;;;;;;8.07;3.70;;;10.90;99.90;;;;;;4732792;30;20041;-78
2021/01/04 16:17:16;;;;;;;8.05;3.88;;;11.00;99.90;;;;;;4733055;30;20028;-78
2021/01/04 16:19:43;;;;;;;6.57;3.15;;;11.00;99.90;;;;;;4732957;30;20035;-78
2021/01/04 16:22:10;;;;;;;6.80;3.67;;;10.90;99.90;;;;;;4733986;30;20025;-78
2021/01/04 16:24:36;;;;;;;9.02;3.90;;;10.80;99.90;;;;;;4730595;30;20735;-78
2021/01/04 16:27:03;;;;;;;4.80;3.45;;;10.90;99.90;;;;;;4732793;30;20480;-78
2021/01/04 16:29:29;;;;;;;5.32;3.80;;;10.80;99.90;;;;;;4731655;30;20050;-78
2021/01/04 16:32:02;;;;;;;6.10;3.28;;;10.70;99.90;;;;;;4731622;30;20090;-78
2021/01/04 16:34:30;;;;;;;6.75;3.53;;;10.70;99.90;;;;;;4731457;30;20466;-78
2021/01/04 16:37:08;;;;;;;9.05;5.55;;;10.60;99.90;;;;;;4732247;30;20080;-78
2021/01/04 16:39:37;;;;;;;8.55;4.70;;;10.60;99.90;;;;;;4731409;30;20406;-78
2021/01/04 16:42:12;;;;;;;8.23;5.28;;;10.40;99.90;;;;;;4732386;30;20033;-79
2021/01/04 16:44:41;;;;;;;10.13;5.68;;;10.40;99.90;;;;;;4729419;30;20051;-78
2021/01/04 16:47:09;;;;;;;17.77;9.88;;;10.40;99.90;;;;;;4725977;30;20040;-81
2021/01/04 16:49:36;;;;;;;15.07;9.13;;;10.50;99.90;;;;;;4729113;30;20118;-80
2021/01/04 16:52:05;;;;;;;7.13;5.07;;;10.50;99.90;;;;;;4730131;30;20108;-78
2021/01/04 16:54:31;;;;;;;18.90;13.68;;;10.60;99.90;;;;;;4731779;30;20458;-78
2021/01/04 16:56:58;;;;;;;17.92;11.82;;;10.60;99.90;;;;;;4731782;30;20049;-79
2021/01/04 16:59:25;;;;;;;18.50;12.57;;;10.60;99.90;;;;;;4731163;30;20059;-79
2021/01/04 17:01:52;;;;;;;15.40;8.70;;;10.70;99.90;;;;;;4730366;30;20035;-79
2021/01/04 17:04:18;;;;;;;9.95;4.53;;;10.70;99.90;;;;;;4729034;30;20029;-79
2021/01/04 17:06:53;;;;;;;11.63;5.60;;;10.70;99.90;;;;;;4723348;30;20032;-79
2021/01/04 17:09:20;;;;;;;10.27;5.18;;;10.60;99.90;;;;;;4731733;30;20040;-79
2021/01/04 17:11:47;;;;;;;6.38;4.05;;;10.60;99.90;;;;;;4731605;30;20036;-79
2021/01/04 17:14:16;;;;;;;10.50;3.60;;;10.60;99.90;;;;;;4731226;30;20076;-79
2021/01/04 17:16:43;;;;;;;6.63;3.85;;;10.70;99.90;;;;;;4731543;30;20074;-79
2021/01/04 17:19:10;;;;;;;9.60;3.88;;;10.70;99.90;;;;;;4730616;30;20048;-79
2021/01/04 17:21:37;;;;;;;8.32;4.25;;;10.80;99.90;;;;;;4731592;30;20044;-78
2021/01/04 17:24:06;;;;;;;11.65;5.50;;;10.80;99.90;;;;;;4730025;30;20052;-78
2021/01/04 17:26:39;;;;;;;6.45;3.47;;;10.70;99.90;;;;;;4729517;30;20037;-78
2021/01/04 17:29:05;;;;;;;;;;;10.80;99.90;;;;;;4731787;30;20063;-78
2021/01/04 17:31:31;;;;;;;6.93;4.38;;;10.80;99.90;;;;;;4731613;30;20016;-78
2021/01/04 17:33:58;;;;;;;14.73;4.57;;;10.80;99.90;;;;;;4730014;30;20036;-78
2021/01/04 17:36:29;;;;;;;6.43;3.75;;;10.80;99.90;;;;;;4731215;30;20481;-78
2021/01/04 17:38:56;;;;;;;7.53;3.60;;;10.80;99.90;;;;;;4725188;30;20032;-78
2021/01/04 17:41:24;;;;;;;9.07;3.35;;;10.80;99.90;;;;;;4725190;30;20111;-77
2021/01/04 17:43:50;;;;;;;7.05;4.38;;;10.70;99.90;;;;;;4731005;30;20040;-78
2021/01/04 17:46:25;;;;;;;6.90;3.90;;;10.80;99.90;;;;;;4730841;30;20025;-78
2021/01/04 17:48:52;;;;;;;13.45;5.57;;;10.70;99.90;;;;;;4731480;30;20037;-78
2021/01/04 17:51:18;;;;;;;15.45;7.63;;;10.70;99.90;;;;;;4731124;30;20557;-78
2021/01/04 17:53:47;;;;;;;10.18;6.57;;;10.70;99.90;;;;;;4731036;30;20611;-77
2021/01/04 17:56:13;;;;;;;10.25;6.35;;;10.70;99.90;;;;;;4718824;30;20040;-77
2021/01/04 17:58:39;;;;;;;15.18;7.90;;;10.70;99.90;;;;;;4730874;30;20052;-77
2021/01/04 18:01:08;;;;;;;13.48;6.80;;;10.70;99.90;;;;;;4729922;30;20040;-78
2021/01/04 18:03:34;;;;;;;12.48;6.53;;;10.70;99.90;;;;;;4722894;30;20112;-77
2021/01/04 18:06:01;;;;;;;13.88;7.00;;;10.70;99.90;;;;;;4725834;30;20080;-78
2021/01/04 18:08:27;;;;;;;10.82;5.93;;;10.70;99.90;;;;;;4739168;30;20036;-78
2021/01/04 18:10:54;;;;;;;12.43;7.20;;;10.70;99.90;;;;;;4736532;30;20036;-77
2021/01/04 18:13:20;;;;;;;11.32;6.80;;;10.70;99.90;;;;;;4729353;30;20036;-77
2021/01/04 18:15:47;;;;;;;14.82;6.97;;;10.70;99.90;;;;;;4734028;30;20033;-77
2021/01/04 18:18:15;;;;;;;15.27;7.22;;;10.70;99.90;;;;;;4729039;30;20406;-79
2021/01/04 18:20:41;;;;;;;24.70;7.47;;;10.60;99.90;;;;;;4734286;30;20433;-79
2021/01/04 18:23:07;;;;;;;9.95;6.22;;;10.60;99.90;;;;;;4718393;30;20456;-78
2021/01/04 18:25:33;;;;;;;16.45;6.45;;;10.60;99.90;;;;;;4734357;30;20123;-78
2021/01/04 18:28:00;;;;;;;9.85;5.53;;;10.60;99.90;;;;;;4733837;30;20102;-78
2021/01/04 18:30:26;;;;;;;8.82;5.07;;;10.60;99.90;;;;;;4734126;30;20037;-78
2021/01/04 18:32:52;;;;;;;10.13;4.65;;;10.60;99.90;;;;;;4734325;30;20596;-78
2021/01/04 18:35:19;;;;;;;9.18;3.92;;;10.60;99.90;;;;;;4734116;30;20052;-77
2021/01/04 18:37:46;;;;;;;8.32;4.65;;;10.60;99.90;;;;;;4733640;30;20031;-77
2021/01/04 18:40:14;;;;;;;18.80;6.78;;;10.60;99.90;;;;;;4719666;30;20124;-77
2021/01/04 18:42:40;;;;;;;18.20;8.02;;;10.70;99.90;;;;;;4733984;30;20037;-77
2021/01/04 18:45:12;;;;;;;17.55;9.77;;;10.60;99.90;;;;;;4733611;30;20040;-77
2021/01/04 18:47:40;;;;;;;19.75;10.73;;;10.60;99.90;;;;;;4733183;30;20032;-77
2021/01/04 18:50:11;;;;;;;22.80;10.93;;;10.60;99.90;;;;;;4732933;30;20036;-78
2021/01/04 18:52:43;;;;;;;17.02;10.23;;;10.60;99.90;;;;;;4732761;30;20040;-78
2021/01/04 18:55:10;;;;;;;18.48;9.05;;;10.60;99.90;;;;;;4733502;30;20517;-76
2021/01/04 18:57:36;;;;;;;14.98;8.35;;;10.60;99.90;;;;;;4736990;30;20108;-79
2021/01/04 19:00:06;;;;;;;13.77;8.10;;;10.50;99.90;;;;;;4729367;30;20119;-78
2021/01/04 19:02:32;;;;;;;17.73;10.25;;;10.50;99.90;;;;;;4719663;30;20036;-78
2021/01/04 19:04:58;;;;;;;16.77;9.55;;;10.50;99.90;;;;;;4727067;30;20040;-77
2021/01/04 19:07:25;;;;;;;20.55;9.52;;;10.40;99.90;;;;;;4724596;30;20049;-77
2021/01/04 19:09:51;;;;;;;20.42;11.00;;;10.30;99.90;;;;;;4728105;30;20041;-78
2021/01/04 19:12:17;;;;;;;23.65;12.90;;;10.30;99.90;;;;;;4732658;30;20516;-78
2021/01/04 19:14:44;;;;;;;24.30;11.48;;;10.30;99.90;;;;;;4733890;30;20564;-78
2021/01/04 19:17:12;;;;;;;21.05;12.68;;;10.40;99.90;;;;;;4729680;30;20061;-78
2021/01/04 19:19:40;;;;;;;21.70;12.27;;;10.30;99.90;;;;;;4742762;30;20086;-78
2021/01/04 19:22:08;;;;;;;22.17;12.98;;;10.40;99.90;;;;;;4742043;30;20037;-78
2021/01/04 19:24:34;;;;;;;24.50;13.18;;;10.40;99.90;;;;;;4733737;30;20033;-77
2021/01/04 19:27:02;;;;;;;22.67;14.48;;;10.30;99.90;;;;;;4733108;30;20071;-77
2021/01/04 19:29:28;;;;;;;23.80;13.70;;;10.40;99.90;;;;;;4742880;30;20036;-78
2021/01/04 19:31:58;;;;;;;29.05;14.07;;;10.30;99.90;;;;;;4750037;30;20498;-78
2021/01/04 19:34:26;;;;;;;22.88;14.00;;;10.30;99.90;;;;;;4736821;30;20045;-77
2021/01/04 19:36:58;;;;;;;16.77;11.27;;;10.30;99.90;;;;;;4733521;30;20045;-78
2021/01/04 19:39:27;;;;;;;26.10;11.82;;;10.30;99.90;;;;;;4739099;30;20032;-78
2021/01/04 19:42:03;;;;;;;26.35;11.23;;;10.30;99.90;;;;;;4751001;30;20465;-78
2021/01/04 19:44:30;;;;;;;24.23;11.82;;;10.30;99.90;;;;;;4750983;30;20036;-77
2021/01/04 19:46:56;;;;;;;21.23;11.30;;;10.30;99.90;;;;;;4751009;30;20035;-77
2021/01/04 19:49:22;;;;;;;20.50;9.77;;;10.30;99.90;;;;;;4732930;30;20074;-78
2021/01/04 19:51:49;;;;;;;17.35;10.52;;;10.40;99.90;;;;;;4734968;30;20843;-78
2021/01/04 19:54:15;;;;;;;17.13;10.05;;;10.40;99.90;;;;;;4731934;30;20047;-77
2021/01/04 19:56:48;;;;;;;18.13;10.95;;;10.40;99.90;;;;;;4725240;30;20049;-77
2021/01/04 19:59:14;;;;;;;21.45;11.07;;;10.40;99.90;;;;;;4726685;30;20083;-78
2021/01/04 20:01:40;;;;;;;20.20;11.40;;;10.40;99.90;;;;;;4750488;30;20060;-77
2021/01/04 20:04:07;;;;;;;18.52;11.35;;;10.40;99.90;;;;;;4750610;30;20111;-77
2021/01/04 20:06:33;;;;;;;19.45;11.25;;;10.40;99.90;;;;;;4750872;30;20393;-78
2021/01/04 20:09:00;;;;;;;21.75;12.35;;;10.40;99.90;;;;;;4745039;30;20032;-77
2021/01/04 20:11:28;;;;;;;23.13;12.05;;;10.40;99.90;;;;;;4724817;30;20122;-78
2021/01/04 20:13:55;;;;;;;20.67;12.18;;;10.40;99.90;;;;;;4724278;30;20083;-78
2021/01/04 20:16:22;;;;;;;21.80;10.88;;;10.40;99.90;;;;;;4727552;30;20048;-77
2021/01/04 20:18:49;;;;;;;19.13;10.90;;;10.40;99.90;;;;;;4730429;30;20079;-78
2021/01/04 20:21:32;;;;;;;18.05;10.10;;;10.40;99.90;;;;;;4728935;30;20032;-78
2021/01/04 20:24:01;;;;;;;23.08;11.13;;;10.40;99.90;;;;;;4732608;30;20043;-78
2021/01/04 20:26:30;;;;;;;21.95;12.18;;;10.40;99.90;;;;;;4732667;30;20444;-78
2021/01/04 20:28:57;;;;;;;20.75;12.35;;;10.40;99.90;;;;;;4732657;30;20036;-78
2021/01/04 20:31:35;;;;;;;18.00;10.57;;;10.30;99.90;;;;;;4740638;30;20036;-78
2021/01/04 20:34:02;;;;;;;22.33;11.60;;;10.30;99.90;;;;;;4749277;30;20063;-78
2021/01/04 20:36:29;;;;;;;22.75;13.02;;;10.20;99.90;;;;;;4749958;30;20040;-79
2021/01/04 20:38:58;;;;;;;19.95;12.95;;;10.20;99.90;;;;;;4748819;30;20372;-79
2021/01/04 20:41:26;;;;;;;23.00;11.82;;;10.20;99.90;;;;;;4737871;30;20115;-79
2021/01/04 20:43:52;;;;;;;22.00;12.98;;;10.20;99.90;;;;;;4748988;30;20330;-79
2021/01/04 20:46:23;;;;;;;20.27;12.60;;;10.20;99.90;;;;;;4750057;30;20040;-79
2021/01/04 20:48:50;;;;;;;20.95;12.02;;;10.20;99.90;;;;;;4748689;30;20032;-79
2021/01/04 20:51:18;;;;;;;20.17;12.43;;;10.20;99.90;;;;;;4737420;30;20123;-79
2021/01/04 20:53:45;;;;;;;21.55;13.07;;;10.20;99.90;;;;;;4735940;30;20032;-79